createdAt,value
2023-10-26T00:02:16.031Z,94622.53
2023-10-26T00:04:43.010Z,94620.69
2023-10-26T00:07:09.731Z,94627.44
2023-10-26T00:09:36.237Z,94623.72
2023-10-26T00:12:03.775Z,94634.66
2023-10-26T00:14:30.330Z,94631.28
2023-10-26T00:16:56.851Z,94634.34
2023-10-26T00:19:23.395Z,94652.44
2023-10-26T00:21:49.900Z,94624.56
2023-10-26T00:24:16.438Z,94632.44
2023-10-26T00:26:42.963Z,94612.50
2023-10-26T00:29:09.576Z,94617.75
2023-10-26T00:31:36.126Z,94613.66
2023-10-26T00:34:02.742Z,94628.31
2023-10-26T00:36:29.257Z,94633.22
2023-10-26T00:38:55.869Z,94630.16
2023-10-26T00:41:22.454Z,94630.16
2023-10-26T00:43:49.044Z,94629.41
2023-10-26T00:46:16.373Z,94619.16
2023-10-26T00:48:43.662Z,94628.31
2023-10-26T00:51:10.560Z,94639.56
2023-10-26T00:53:39.536Z,94637.75
2023-10-26T00:56:06.498Z,94629.50
2023-10-26T00:58:33.855Z,94645.81
2023-10-26T01:01:00.444Z,94653.72
2023-10-26T01:03:30.813Z,94650.31
2023-10-26T01:05:58.249Z,94646.13
2023-10-26T01:08:24.964Z,94657.09
2023-10-26T01:10:51.817Z,94642.06
2023-10-26T01:13:19.129Z,94648.06
2023-10-26T01:15:45.777Z,94634.16
2023-10-26T01:18:12.425Z,94643.16
2023-10-26T01:20:42.270Z,94632.16
2023-10-26T01:23:09.043Z,94614.09
2023-10-26T01:25:35.561Z,94648.81
2023-10-26T01:28:02.055Z,94645.88
2023-10-26T01:30:28.645Z,94641.03
2023-10-26T01:32:55.533Z,94640.66
2023-10-26T01:35:22.100Z,94639.16
2023-10-26T01:37:48.713Z,94634.31
2023-10-26T01:40:15.258Z,94636.25
2023-10-26T01:42:41.765Z,94632.91
2023-10-26T01:45:09.625Z,94633.28
2023-10-26T01:47:37.276Z,94636.66
2023-10-26T01:50:04.014Z,94638.19
2023-10-26T01:52:30.603Z,94631.09
2023-10-26T01:54:57.156Z,94621.28
2023-10-26T01:57:24.166Z,94622.06
2023-10-26T01:59:50.782Z,94627.69
2023-10-26T02:02:17.299Z,94619.38
2023-10-26T02:04:44.212Z,94613.75
2023-10-26T02:07:10.861Z,94616.41
2023-10-26T02:09:37.414Z,94614.53
2023-10-26T02:12:04.094Z,94618.31
2023-10-26T02:14:30.631Z,94628.59
2023-10-26T02:16:57.112Z,94627.06
2023-10-26T02:19:23.653Z,94631.25
2023-10-26T02:21:50.311Z,94617.69
2023-10-26T02:24:16.954Z,94627.84
2023-10-26T02:26:43.439Z,94624.06
2023-10-26T02:29:09.997Z,94617.66
2023-10-26T02:31:36.589Z,94627.44
2023-10-26T02:34:03.097Z,94607.56
2023-10-26T02:36:30.974Z,94608.25
2023-10-26T02:38:57.733Z,94609.41
2023-10-26T02:41:24.226Z,94608.75
2023-10-26T02:43:50.730Z,94604.28
2023-10-26T02:46:17.241Z,94607.31
2023-10-26T02:48:43.829Z,94610.38
2023-10-26T02:51:10.461Z,94617.53
2023-10-26T02:53:36.961Z,94622.41
2023-10-26T02:56:03.757Z,94616.03
2023-10-26T02:58:30.297Z,94607.03
2023-10-26T03:00:56.910Z,94614.59
2023-10-26T03:03:23.988Z,94616.84
2023-10-26T03:05:50.592Z,94611.97
2023-10-26T03:08:17.076Z,94610.13
2023-10-26T03:10:44.078Z,94604.47
2023-10-26T03:13:11.107Z,94611.28
2023-10-26T03:15:37.589Z,94597.31
2023-10-26T03:18:04.419Z,94615.78
2023-10-26T03:20:32.891Z,94611.66
2023-10-26T03:22:59.641Z,94607.91
2023-10-26T03:25:26.224Z,94616.94
2023-10-26T03:27:52.709Z,94604.19
2023-10-26T03:30:19.432Z,94601.94
2023-10-26T03:32:46.013Z,94615.09
2023-10-26T03:35:12.746Z,94598.56
2023-10-26T03:37:39.313Z,94608.31
2023-10-26T03:40:06.962Z,94601.19
2023-10-26T03:42:33.772Z,94600.44
2023-10-26T03:45:00.941Z,94601.59
2023-10-26T03:47:27.647Z,94610.59
2023-10-26T03:49:54.351Z,94606.50
2023-10-26T03:52:21.661Z,94609.13
2023-10-26T03:54:48.377Z,94603.13
2023-10-26T03:57:16.115Z,94600.50
2023-10-26T03:59:42.983Z,94599.38
2023-10-26T04:02:09.701Z,94599.00
2023-10-26T04:04:36.237Z,94598.28
2023-10-26T04:07:02.878Z,94595.66
2023-10-26T04:09:29.430Z,94600.19
2023-10-26T04:11:55.983Z,94598.66
2023-10-26T04:14:22.504Z,94594.91
2023-10-26T04:16:50.953Z,94602.81
2023-10-26T04:19:17.576Z,94599.44
2023-10-26T04:21:44.376Z,94596.44
2023-10-26T04:24:11.017Z,94597.94
2023-10-26T04:26:37.616Z,94600.94
2023-10-26T04:29:06.993Z,94593.44
2023-10-26T04:31:35.252Z,94597.19
2023-10-26T04:34:01.887Z,94602.84
2023-10-26T04:36:28.424Z,94598.72
2023-10-26T04:38:54.980Z,94582.16
2023-10-26T04:41:21.487Z,94592.66
2023-10-26T04:43:48.027Z,94582.53
2023-10-26T04:46:14.529Z,94597.94
2023-10-26T04:48:41.195Z,94600.97
2023-10-26T04:51:09.710Z,94582.53
2023-10-26T04:53:36.468Z,94578.75
2023-10-26T04:56:04.037Z,94591.53
2023-10-26T04:58:30.683Z,94581.41
2023-10-26T05:00:57.415Z,94578.75
2023-10-26T05:03:23.919Z,94579.91
2023-10-26T05:05:50.542Z,94580.66
2023-10-26T05:08:17.075Z,94564.84
2023-10-26T05:10:43.651Z,94572.00
2023-10-26T05:13:11.645Z,94567.13
2023-10-26T05:15:38.420Z,94568.25
2023-10-26T05:18:05.249Z,94567.13
2023-10-26T05:20:34.068Z,94566.75
2023-10-26T05:23:01.553Z,94574.63
2023-10-26T05:25:28.041Z,94569.38
2023-10-26T05:27:54.569Z,94570.13
2023-10-26T05:30:21.273Z,94583.66
2023-10-26T05:32:47.849Z,94567.47
2023-10-26T05:35:15.263Z,94575.34
2023-10-26T05:37:42.146Z,94573.09
2023-10-26T05:40:09.690Z,94561.81
2023-10-26T05:42:36.717Z,94566.34
2023-10-26T05:45:04.032Z,94567.84
2023-10-26T05:47:30.666Z,94575.34
2023-10-26T05:49:57.356Z,94561.41
2023-10-26T05:52:23.906Z,94574.94
2023-10-26T05:54:52.057Z,94571.59
2023-10-26T05:57:18.599Z,94572.69
2023-10-26T05:59:45.148Z,94574.22
2023-10-26T06:02:11.620Z,94578.00
2023-10-26T06:04:38.148Z,94587.41
2023-10-26T06:07:04.972Z,94578.75
2023-10-26T06:09:31.957Z,94592.31
2023-10-26T06:11:59.818Z,94593.78
2023-10-26T06:14:26.408Z,94588.53
2023-10-26T06:16:52.930Z,94578.00
2023-10-26T06:19:19.435Z,94592.69
2023-10-26T06:21:45.977Z,94592.69
2023-10-26T06:24:12.568Z,94600.22
2023-10-26T06:26:39.260Z,94598.31
2023-10-26T06:29:05.821Z,94598.69
2023-10-26T06:31:32.336Z,94591.56
2023-10-26T06:33:58.852Z,94607.72
2023-10-26T06:36:25.368Z,94603.97
2023-10-26T06:38:52.332Z,94606.22
2023-10-26T06:41:18.936Z,94611.47
2023-10-26T06:43:45.425Z,94606.94
2023-10-26T06:46:12.135Z,94600.91
2023-10-26T06:48:38.760Z,94611.38
2023-10-26T06:51:06.106Z,94612.03
2023-10-26T06:53:32.651Z,94604.41
2023-10-26T06:55:59.618Z,94611.75
2023-10-26T06:58:26.561Z,94610.25
2023-10-26T07:00:53.837Z,94583.56
2023-10-26T07:03:21.531Z,94604.34
2023-10-26T07:05:51.390Z,94598.38
2023-10-26T07:08:18.207Z,94582.00
2023-10-26T07:10:44.778Z,94606.88
2023-10-26T07:13:11.993Z,94606.16
2023-10-26T07:15:38.584Z,94610.28
2023-10-26T07:18:06.231Z,94618.94
2023-10-26T07:20:33.157Z,94609.03
2023-10-26T07:22:59.719Z,94605.31
2023-10-26T07:25:26.313Z,94608.19
2023-10-26T07:27:52.894Z,94594.81
2023-10-26T07:30:19.667Z,94613.00
2023-10-26T07:32:46.319Z,94613.72
2023-10-26T07:35:15.851Z,94618.81
2023-10-26T07:37:42.773Z,94608.22
2023-10-26T07:40:27.588Z,94622.81
2023-10-26T07:42:55.667Z,94608.25
2023-10-26T07:45:22.217Z,94619.28
2023-10-26T07:47:49.746Z,94616.94
2023-10-26T07:50:21.036Z,94625.81
2023-10-26T07:52:48.801Z,94632.00
2023-10-26T07:55:15.843Z,94622.00
2023-10-26T07:57:46.563Z,94625.25
2023-10-26T08:00:14.142Z,94633.28
2023-10-26T08:02:41.612Z,94618.69
2023-10-26T08:05:10.203Z,94610.09
2023-10-26T08:07:40.427Z,94621.06
2023-10-26T08:10:07.790Z,94620.50
2023-10-26T08:12:34.299Z,94628.47
2023-10-26T08:16:06.678Z,94632.69
2023-10-26T08:17:48.163Z,94628.16
2023-10-26T08:20:15.572Z,94623.41
2023-10-26T08:22:42.115Z,94627.66
2023-10-26T08:25:09.132Z,94628.94
2023-10-26T08:27:38.307Z,94629.00
2023-10-26T08:30:05.924Z,94630.75
2023-10-26T08:32:33.006Z,94625.78
2023-10-26T08:34:59.821Z,94630.84
2023-10-26T08:37:28.595Z,94630.63
2023-10-26T08:39:55.314Z,94632.72
2023-10-26T08:42:21.914Z,94629.66
2023-10-26T08:44:48.930Z,94630.63
2023-10-26T08:47:18.853Z,94617.19
2023-10-26T08:49:55.960Z,94618.25
2023-10-26T08:52:31.436Z,94613.25
2023-10-26T08:54:58.041Z,94618.28
2023-10-26T08:57:24.640Z,94630.38
2023-10-26T08:59:51.142Z,94635.97
2023-10-26T09:02:17.835Z,94634.94
2023-10-26T09:05:04.881Z,94630.78
2023-10-26T09:07:32.227Z,94621.25
2023-10-26T09:09:59.021Z,94625.16
2023-10-26T09:12:25.777Z,94631.34
2023-10-26T09:15:03.710Z,94635.13
2023-10-26T09:17:32.066Z,94629.69
2023-10-26T09:19:59.738Z,94628.97
2023-10-26T09:22:39.975Z,94614.66
2023-10-26T09:25:11.708Z,94627.03
2023-10-26T09:27:39.501Z,94637.00
2023-10-26T09:30:07.420Z,94619.56
2023-10-26T09:32:37.756Z,94630.25
2023-10-26T09:35:04.830Z,94631.44
2023-10-26T09:37:31.424Z,94622.13
2023-10-26T09:40:12.595Z,94634.63
2023-10-26T09:42:43.315Z,94629.25
2023-10-26T09:45:10.202Z,94619.88
2023-10-26T09:47:38.008Z,94625.13
2023-10-26T09:50:06.163Z,94619.69
2023-10-26T09:52:33.234Z,94629.13
2023-10-26T09:55:00.738Z,94627.28
2023-10-26T09:57:31.215Z,94630.63
2023-10-26T10:00:00.686Z,94633.28
2023-10-26T10:02:27.551Z,94631.00
2023-10-26T10:04:54.083Z,94631.06
2023-10-26T10:07:44.435Z,94637.34
2023-10-26T10:10:13.082Z,94622.13
2023-10-26T10:12:40.837Z,94615.84
2023-10-26T10:17:48.219Z,94618.25
2023-10-26T10:20:23.904Z,94617.22
2023-10-26T10:22:53.496Z,94609.00
2023-10-26T10:25:20.571Z,94620.56
2023-10-26T10:27:50.137Z,94619.84
2023-10-26T10:30:20.542Z,94610.09
2023-10-26T10:32:48.124Z,94629.41
2023-10-26T10:35:36.108Z,94623.91
2023-10-26T10:38:18.564Z,94655.34
2023-10-26T10:40:58.853Z,94647.84
2023-10-26T10:43:35.504Z,94647.03
2023-10-26T10:46:16.264Z,94643.16
2023-10-26T10:48:58.617Z,94640.50
2023-10-26T10:51:44.969Z,94622.25
2023-10-26T10:54:22.345Z,94632.06
2023-10-26T10:56:57.079Z,94621.28
2023-10-26T10:59:30.728Z,94633.53
2023-10-26T11:02:14.515Z,94621.94
2023-10-26T11:05:09.172Z,94590.50
2023-10-26T11:07:43.032Z,94593.41
2023-10-26T11:10:10.242Z,94600.50
2023-10-26T11:12:37.038Z,94605.16
2023-10-26T11:15:05.037Z,94604.75
2023-10-26T11:17:32.811Z,94605.78
2023-10-26T11:19:59.466Z,94587.78
2023-10-26T11:22:26.013Z,94577.03
2023-10-26T11:24:52.611Z,94561.59
2023-10-26T11:27:22.171Z,94567.53
2023-10-26T11:30:06.414Z,94562.47
2023-10-26T11:32:33.560Z,94562.91
2023-10-26T11:35:07.442Z,94567.88
2023-10-26T11:37:36.224Z,94569.38
2023-10-26T11:40:07.123Z,94569.09
2023-10-26T11:42:51.760Z,94578.13
2023-10-26T11:45:23.445Z,94586.41
2023-10-26T11:48:00.222Z,94586.94
2023-10-26T11:50:37.260Z,94587.03
2023-10-26T11:53:05.381Z,94594.69
2023-10-26T11:55:33.675Z,94581.53
2023-10-26T11:58:01.287Z,94574.09
2023-10-26T12:00:29.553Z,94571.09
2023-10-26T12:02:57.857Z,94578.03
2023-10-26T12:05:25.855Z,94579.38
2023-10-26T12:07:52.729Z,94583.88
2023-10-26T12:10:23.122Z,94578.69
2023-10-26T12:12:50.386Z,94592.78
2023-10-26T12:15:17.627Z,94588.38
2023-10-26T12:17:44.541Z,94576.28
2023-10-26T12:20:12.231Z,94582.69
2023-10-26T12:22:40.077Z,94573.19
2023-10-26T12:25:08.937Z,94574.88
2023-10-26T12:28:17.996Z,94563.38
2023-10-26T12:30:22.729Z,94564.16
2023-10-26T12:32:49.353Z,94561.44
2023-10-26T12:35:16.382Z,94554.34
2023-10-26T12:37:43.163Z,94544.25
2023-10-26T12:40:09.988Z,94547.13
2023-10-26T12:42:37.603Z,94534.53
2023-10-26T12:45:04.649Z,94509.59
2023-10-26T12:47:31.141Z,94543.41
2023-10-26T12:49:57.706Z,94542.88
2023-10-26T12:52:24.184Z,94538.50
2023-10-26T12:54:50.710Z,94551.25
2023-10-26T12:57:17.704Z,94539.78
2023-10-26T12:59:44.742Z,94556.25
2023-10-26T13:02:11.325Z,94553.66
2023-10-26T13:04:38.375Z,94551.75
2023-10-26T13:07:04.956Z,94529.91
2023-10-26T13:09:31.545Z,94527.97
2023-10-26T13:11:58.109Z,94531.84
2023-10-26T13:14:24.699Z,94520.91
2023-10-26T13:16:57.213Z,94517.34
2023-10-26T13:19:25.074Z,94507.06
2023-10-26T13:21:51.723Z,94504.91
2023-10-26T13:24:18.234Z,94513.72
2023-10-26T13:26:44.732Z,94503.56
2023-10-26T13:29:11.261Z,94510.13
2023-10-26T13:31:37.850Z,94516.50
2023-10-26T13:34:04.575Z,94516.38
2023-10-26T13:36:31.123Z,94494.78
2023-10-26T13:38:57.686Z,94517.63
2023-10-26T13:41:24.768Z,94516.13
2023-10-26T13:43:51.777Z,94504.13
2023-10-26T13:46:18.358Z,94513.25
2023-10-26T13:48:44.958Z,94507.00
2023-10-26T13:51:18.626Z,94508.66
2023-10-26T13:53:45.571Z,94520.34
2023-10-26T13:56:12.158Z,94519.97
2023-10-26T13:58:38.864Z,94516.38
2023-10-26T14:01:15.005Z,94517.00
2023-10-26T14:03:41.982Z,94516.66
2023-10-26T14:06:09.057Z,94516.00
2023-10-26T14:08:36.038Z,94509.84
2023-10-26T14:11:02.565Z,94509.41
2023-10-26T14:13:29.724Z,94502.38
2023-10-26T14:15:56.522Z,94504.03
2023-10-26T14:18:23.637Z,94497.38
2023-10-26T14:20:50.158Z,94486.81
2023-10-26T14:23:16.703Z,94484.66
2023-10-26T14:25:43.357Z,94501.34
2023-10-26T14:28:09.873Z,94499.00
2023-10-26T14:30:36.454Z,94497.53
2023-10-26T14:33:03.077Z,94479.88
2023-10-26T14:35:30.059Z,94480.06
2023-10-26T14:37:59.833Z,94468.63
2023-10-26T14:40:26.894Z,94459.31
2023-10-26T14:42:53.627Z,94460.31
2023-10-26T14:45:20.176Z,94460.00
2023-10-26T14:47:46.735Z,94479.50
2023-10-26T14:50:13.448Z,94477.66
2023-10-26T14:52:40.175Z,94477.00
2023-10-26T14:55:07.256Z,94470.63
2023-10-26T14:57:34.058Z,94478.63
2023-10-26T15:00:00.616Z,94485.16
2023-10-26T15:02:27.218Z,94480.34
2023-10-26T15:04:54.089Z,94479.88
2023-10-26T15:07:20.922Z,94473.16
2023-10-26T15:10:24.285Z,94461.72
2023-10-26T15:12:34.042Z,94452.28
2023-10-26T15:15:00.667Z,94439.91
2023-10-26T15:17:27.311Z,94438.75
2023-10-26T15:19:53.798Z,94427.78
2023-10-26T15:22:20.359Z,94430.13
2023-10-26T15:24:48.757Z,94449.09
2023-10-26T15:27:15.384Z,94440.03
2023-10-26T15:29:43.351Z,94449.59
2023-10-26T15:32:10.162Z,94449.19
2023-10-26T15:34:36.855Z,94435.41
2023-10-26T15:37:03.636Z,94436.56
2023-10-26T15:39:34.262Z,94435.34
2023-10-26T15:42:00.746Z,94427.19
2023-10-26T15:44:27.252Z,94432.91
2023-10-26T15:46:53.823Z,94430.16
2023-10-26T15:49:31.779Z,94423.06
2023-10-26T15:52:02.417Z,94422.63
2023-10-26T15:54:29.200Z,94423.47
2023-10-26T15:56:55.723Z,94416.41
2023-10-26T15:59:24.592Z,94422.09
2023-10-26T16:01:51.182Z,94420.69
2023-10-26T16:04:17.719Z,94417.03
2023-10-26T16:06:46.670Z,94411.97
2023-10-26T16:09:14.076Z,94412.41
2023-10-26T16:11:40.619Z,94408.44
2023-10-26T16:14:07.236Z,94410.00
2023-10-26T16:16:34.004Z,94404.34
2023-10-26T16:19:00.664Z,94406.81
2023-10-26T16:21:27.425Z,94406.44
2023-10-26T16:23:53.984Z,94397.53
2023-10-26T16:26:20.838Z,94409.69
2023-10-26T16:28:50.399Z,94412.41
2023-10-26T16:31:17.611Z,94414.03
2023-10-26T16:33:45.744Z,94411.56
2023-10-26T16:36:12.945Z,94416.03
2023-10-26T16:38:39.476Z,94415.69
2023-10-26T16:41:05.961Z,94386.47
2023-10-26T16:43:32.455Z,94406.38
2023-10-26T16:46:01.805Z,94403.84
2023-10-26T16:48:28.486Z,94366.03
2023-10-26T16:50:56.139Z,94407.81
2023-10-26T16:53:31.425Z,94405.97
2023-10-26T16:56:03.083Z,94397.09
2023-10-26T16:58:31.657Z,94405.44
2023-10-26T17:00:59.765Z,94396.38
2023-10-26T17:03:28.089Z,94419.84
2023-10-26T17:05:55.003Z,94407.00
2023-10-26T17:08:22.383Z,94416.53
2023-10-26T17:10:50.091Z,94420.75
2023-10-26T17:13:17.848Z,94413.59
2023-10-26T17:15:46.137Z,94397.88
2023-10-26T17:18:13.805Z,94409.91
2023-10-26T17:20:40.924Z,94403.44
2023-10-26T17:23:07.782Z,94401.91
2023-10-26T17:25:36.122Z,94410.56
2023-10-26T17:28:03.775Z,94397.88
2023-10-26T17:30:30.855Z,94399.81
2023-10-26T17:32:58.245Z,94399.34
2023-10-26T17:35:25.257Z,94400.56
2023-10-26T17:37:53.582Z,94385.59
2023-10-26T17:40:22.436Z,94382.16
2023-10-26T17:42:49.596Z,94390.44
2023-10-26T17:45:16.690Z,94391.09
2023-10-26T17:47:43.766Z,94391.44
2023-10-26T17:50:12.203Z,94390.72
2023-10-26T17:52:39.302Z,94387.09
2023-10-26T17:55:06.923Z,94383.53
2023-10-26T17:57:33.460Z,94373.88
2023-10-26T17:59:59.936Z,94393.38
2023-10-26T18:02:26.439Z,94395.31
2023-10-26T18:04:52.947Z,94398.34
2023-10-26T18:07:19.461Z,94396.13
2023-10-26T18:09:46.345Z,94396.97
2023-10-26T18:12:15.667Z,94383.09
2023-10-26T18:14:42.305Z,94385.66
2023-10-26T18:17:08.972Z,94388.38
2023-10-26T18:19:35.481Z,94391.09
2023-10-26T18:22:02.074Z,94381.09
2023-10-26T18:24:28.553Z,94381.06
2023-10-26T18:26:55.091Z,94390.84
2023-10-26T18:29:22.162Z,94393.94
2023-10-26T18:31:48.745Z,94398.44
2023-10-26T18:34:17.440Z,94382.59
2023-10-26T18:36:44.139Z,94398.38
2023-10-26T18:39:11.399Z,94400.31
2023-10-26T18:41:37.946Z,94396.53
2023-10-26T18:44:04.865Z,94362.81
2023-10-26T18:46:31.526Z,94394.28
2023-10-26T18:48:58.127Z,94378.44
2023-10-26T18:51:24.749Z,94382.22
2023-10-26T18:53:52.116Z,94385.63
2023-10-26T18:56:26.113Z,94384.88
2023-10-26T18:58:54.152Z,94378.06
2023-10-26T19:01:21.651Z,94377.41
2023-10-26T19:04:01.569Z,94381.88
2023-10-26T19:06:30.706Z,94376.28
2023-10-26T19:08:57.783Z,94375.09
2023-10-26T19:11:24.332Z,94378.88
2023-10-26T19:13:51.084Z,94387.97
2023-10-26T19:16:17.886Z,94372.78
2023-10-26T19:18:44.917Z,94378.06
2023-10-26T19:21:11.472Z,94381.88
2023-10-26T19:23:37.961Z,94375.81
2023-10-26T19:26:04.662Z,94365.31
2023-10-26T19:28:31.541Z,94383.34
2023-10-26T19:30:58.219Z,94380.38
2023-10-26T19:33:25.876Z,94380.25
2023-10-26T19:35:52.946Z,94379.75
2023-10-26T19:38:19.461Z,94370.78
2023-10-26T19:40:45.962Z,94377.22
2023-10-26T19:43:12.670Z,94384.00
2023-10-26T19:45:42.083Z,94383.72
2023-10-26T19:48:09.014Z,94380.41
2023-10-26T19:50:35.724Z,94380.47
2023-10-26T19:53:02.235Z,94389.19
2023-10-26T19:55:28.760Z,94352.44
2023-10-26T19:57:55.443Z,94373.00
2023-10-26T20:00:21.998Z,94375.19
2023-10-26T20:02:48.586Z,94376.28
2023-10-26T20:05:15.268Z,94364.56
2023-10-26T20:07:41.868Z,94362.31
2023-10-26T20:10:09.290Z,94368.63
2023-10-26T20:12:37.700Z,94362.84
2023-10-26T20:15:06.566Z,94345.25
2023-10-26T20:17:33.607Z,94358.06
2023-10-26T20:20:00.277Z,94356.25
2023-10-26T20:22:26.829Z,94357.75
2023-10-26T20:24:53.364Z,94357.72
2023-10-26T20:27:19.982Z,94337.50
2023-10-26T20:29:46.581Z,94340.78
2023-10-26T20:32:13.206Z,94332.53
2023-10-26T20:34:39.784Z,94335.81
2023-10-26T20:37:06.372Z,94333.50
2023-10-26T20:39:33.515Z,94338.00
2023-10-26T20:42:00.144Z,94337.25
2023-10-26T20:44:26.634Z,94341.06
2023-10-26T20:46:53.176Z,94335.78
2023-10-26T20:49:19.760Z,94323.03
2023-10-26T20:51:46.323Z,94333.94
2023-10-26T20:54:12.846Z,94338.13
2023-10-26T20:56:39.441Z,94326.81
2023-10-26T20:59:06.072Z,94333.63
2023-10-26T21:01:32.651Z,94339.97
2023-10-26T21:03:59.301Z,94299.50
2023-10-26T21:06:25.913Z,94321.94
2023-10-26T21:08:54.383Z,94310.09
2023-10-26T21:11:21.218Z,94296.28
2023-10-26T21:13:47.846Z,94297.00
2023-10-26T21:16:15.216Z,94308.22
2023-10-26T21:18:42.919Z,94304.38
2023-10-26T21:21:10.597Z,94293.50
2023-10-26T21:23:37.604Z,94300.94
2023-10-26T21:26:08.465Z,94298.72
2023-10-26T21:28:35.839Z,94294.09
2023-10-26T21:31:02.426Z,94287.44
2023-10-26T21:33:29.501Z,94290.81
2023-10-26T21:35:56.209Z,94283.31
2023-10-26T21:38:22.961Z,94281.41
2023-10-26T21:40:49.941Z,94287.72
2023-10-26T21:43:16.700Z,94280.56
2023-10-26T21:45:45.359Z,94283.91
2023-10-26T21:48:13.903Z,94277.88
2023-10-26T21:50:40.757Z,94268.53
2023-10-26T21:53:07.480Z,94273.31
2023-10-26T21:55:35.628Z,94260.97
2023-10-26T21:58:02.389Z,94266.88
2023-10-26T22:00:29.581Z,94261.56
2023-10-26T22:02:59.218Z,94246.78
2023-10-26T22:05:27.133Z,94246.03
2023-10-26T22:07:53.943Z,94251.28
2023-10-26T22:10:21.350Z,94243.06
2023-10-26T22:12:48.528Z,94251.00
2023-10-26T22:15:15.339Z,94237.09
2023-10-26T22:17:42.356Z,94238.84
2023-10-26T22:20:09.883Z,94220.94
2023-10-26T22:22:37.992Z,94230.19
2023-10-26T22:25:04.927Z,94218.59
2023-10-26T22:27:31.957Z,94222.66
2023-10-26T22:29:58.488Z,94226.00
2023-10-26T22:32:25.303Z,94217.38
2023-10-26T22:34:52.386Z,94207.16
2023-10-26T22:37:19.753Z,94210.91
2023-10-26T22:39:46.655Z,94211.63
2023-10-26T22:42:13.385Z,94194.00
2023-10-26T22:44:39.904Z,94198.75
2023-10-26T22:47:07.243Z,94191.25
2023-10-26T22:49:33.903Z,94186.75
2023-10-26T22:52:00.552Z,94191.25
2023-10-26T22:54:27.198Z,94178.81
2023-10-26T22:56:53.691Z,94190.00
2023-10-26T22:59:21.704Z,94170.84
2023-10-26T23:01:48.416Z,94182.06
2023-10-26T23:04:15.614Z,94161.84
2023-10-26T23:06:42.403Z,94170.72
2023-10-26T23:09:12.660Z,94162.03
2023-10-26T23:11:39.719Z,94146.72
2023-10-26T23:14:10.033Z,94148.09
2023-10-26T23:16:37.721Z,94147.34
2023-10-26T23:19:05.573Z,94145.13
2023-10-26T23:21:33.554Z,94146.59
2023-10-26T23:24:03.431Z,94128.28
2023-10-26T23:26:32.520Z,94139.81
2023-10-26T23:29:04.770Z,94135.28
2023-10-26T23:31:31.309Z,94118.69
2023-10-26T23:33:58.402Z,94116.38
2023-10-26T23:36:25.183Z,94114.28
2023-10-26T23:38:52.823Z,94117.31
2023-10-26T23:41:19.511Z,94109.38
2023-10-26T23:43:46.049Z,94090.28
2023-10-26T23:46:12.589Z,94101.13
2023-10-26T23:48:40.195Z,94096.84
2023-10-26T23:51:07.338Z,94097.19
2023-10-26T23:53:35.626Z,94092.31
2023-10-26T23:56:02.601Z,94093.06
2023-10-26T23:58:29.245Z,94093.31
